sensor_id;sensor_type;location;lat;lon;timestamp;temperature;humidity
1021;DHT22;499;42.648;23.270;2023-09-18T00:02:18;14.90;99.90
1021;DHT22;499;42.648;23.270;2023-09-18T00:04:45;15.00;99.90
1021;DHT22;499;42.648;23.270;2023-09-18T00:07:13;15.00;99.90
1021;DHT22;499;42.648;23.270;2023-09-18T00:09:40;14.90;99.90
1021;DHT22;499;42.648;23.270;2023-09-18T00:12:07;14.90;99.90
1021;DHT22;499;42.648;23.270;2023-09-18T00:14:37;14.90;99.90
1021;DHT22;499;42.648;23.270;2023-09-18T00:17:04;14.90;99.90
1021;DHT22;499;42.648;23.270;2023-09-18T00:19:32;14.90;99.90
1021;DHT22;499;42.648;23.270;2023-09-18T00:21:59;14.90;99.90
1021;DHT22;499;42.648;23.270;2023-09-18T00:24:27;14.80;99.90
1021;DHT22;499;42.648;23.270;2023-09-18T00:26:54;14.80;99.90
1021;DHT22;499;42.648;23.270;2023-09-18T00:29:21;14.90;99.90
1021;DHT22;499;42.648;23.270;2023-09-18T00:31:49;14.90;99.90
1021;DHT22;499;42.648;23.270;2023-09-18T00:34:16;15.00;99.90
1021;DHT22;499;42.648;23.270;2023-09-18T00:36:43;14.80;99.90
1021;DHT22;499;42.648;23.270;2023-09-18T00:39:11;14.80;99.90
1021;DHT22;499;42.648;23.270;2023-09-18T00:41:38;14.80;99.90
1021;DHT22;499;42.648;23.270;2023-09-18T00:44:05;14.70;99.90
1021;DHT22;499;42.648;23.270;2023-09-18T00:46:32;14.80;99.90
1021;DHT22;499;42.648;23.270;2023-09-18T00:49:02;14.90;99.90
1021;DHT22;499;42.648;23.270;2023-09-18T00:51:29;15.00;99.90
1021;DHT22;499;42.648;23.270;2023-09-18T00:53:56;15.10;99.90
1021;DHT22;499;42.648;23.270;2023-09-18T00:56:23;15.10;99.90
1021;DHT22;499;42.648;23.270;2023-09-18T00:58:50;15.20;99.90
1021;DHT22;499;42.648;23.270;2023-09-18T01:01:18;15.30;99.90
1021;DHT22;499;42.648;23.270;2023-09-18T01:03:49;15.40;99.90
1021;DHT22;499;42.648;23.270;2023-09-18T01:06:17;15.40;99.90
1021;DHT22;499;42.648;23.270;2023-09-18T01:08:46;15.50;99.90
1021;DHT22;499;42.648;23.270;2023-09-18T01:11:20;15.40;99.90
1021;DHT22;499;42.648;23.270;2023-09-18T01:13:57;15.50;99.90
1021;DHT22;499;42.648;23.270;2023-09-18T01:16:31;15.50;99.90
1021;DHT22;499;42.648;23.270;2023-09-18T01:18:59;15.60;99.90
1021;DHT22;499;42.648;23.270;2023-09-18T01:21:30;15.60;99.90
1021;DHT22;499;42.648;23.270;2023-09-18T01:23:58;15.60;99.90
1021;DHT22;499;42.648;23.270;2023-09-18T01:26:25;15.70;99.90
1021;DHT22;499;42.648;23.270;2023-09-18T01:28:52;15.80;99.90
1021;DHT22;499;42.648;23.270;2023-09-18T01:31:20;15.70;99.90
1021;DHT22;499;42.648;23.270;2023-09-18T01:33:47;15.70;99.90
1021;DHT22;499;42.648;23.270;2023-09-18T01:36:16;15.80;99.90
1021;DHT22;499;42.648;23.270;2023-09-18T01:38:44;15.90;99.90
1021;DHT22;499;42.648;23.270;2023-09-18T01:41:13;16.00;99.90
1021;DHT22;499;42.648;23.270;2023-09-18T01:43:40;16.10;99.90
1021;DHT22;499;42.648;23.270;2023-09-18T01:46:08;16.10;99.90
1021;DHT22;499;42.648;23.270;2023-09-18T01:48:35;16.10;99.90
1021;DHT22;499;42.648;23.270;2023-09-18T01:51:02;16.10;99.90
1021;DHT22;499;42.648;23.270;2023-09-18T01:53:29;16.10;99.90
1021;DHT22;499;42.648;23.270;2023-09-18T01:55:56;16.10;99.90
1021;DHT22;499;42.648;23.270;2023-09-18T01:58:25;16.10;99.90
1021;DHT22;499;42.648;23.270;2023-09-18T02:00:52;16.00;99.90
1021;DHT22;499;42.648;23.270;2023-09-18T02:03:19;15.90;99.90
1021;DHT22;499;42.648;23.270;2023-09-18T02:05:46;15.80;99.90
1021;DHT22;499;42.648;23.270;2023-09-18T02:08:13;15.90;99.90
1021;DHT22;499;42.648;23.270;2023-09-18T02:10:40;15.90;99.30
1021;DHT22;499;42.648;23.270;2023-09-18T02:13:07;15.60;98.60
1021;DHT22;499;42.648;23.270;2023-09-18T02:15:38;15.50;99.90
1021;DHT22;499;42.648;23.270;2023-09-18T02:18:05;15.50;99.90
1021;DHT22;499;42.648;23.270;2023-09-18T02:20:39;15.40;99.20
1021;DHT22;499;42.648;23.270;2023-09-18T02:23:06;15.40;99.10
1021;DHT22;499;42.648;23.270;2023-09-18T02:25:33;15.20;99.00
1021;DHT22;499;42.648;23.270;2023-09-18T02:28:01;15.10;99.90
1021;DHT22;499;42.648;23.270;2023-09-18T02:30:28;15.00;99.90
1021;DHT22;499;42.648;23.270;2023-09-18T02:32:56;15.00;99.90
1021;DHT22;499;42.648;23.270;2023-09-18T02:35:23;14.90;99.90
1021;DHT22;499;42.648;23.270;2023-09-18T02:37:50;15.00;99.90
1021;DHT22;499;42.648;23.270;2023-09-18T02:40:17;15.00;99.90
1021;DHT22;499;42.648;23.270;2023-09-18T02:42:44;14.90;99.90
1021;DHT22;499;42.648;23.270;2023-09-18T02:45:11;15.00;99.90
1021;DHT22;499;42.648;23.270;2023-09-18T02:47:38;15.10;99.90
1021;DHT22;499;42.648;23.270;2023-09-18T02:50:09;15.10;99.90
1021;DHT22;499;42.648;23.270;2023-09-18T02:52:37;15.10;99.90
1021;DHT22;499;42.648;23.270;2023-09-18T02:55:04;15.10;99.90
1021;DHT22;499;42.648;23.270;2023-09-18T02:57:31;15.20;99.90
1021;DHT22;499;42.648;23.270;2023-09-18T02:59:58;15.30;99.90
1021;DHT22;499;42.648;23.270;2023-09-18T03:02:25;15.40;99.90
1021;DHT22;499;42.648;23.270;2023-09-18T03:04:52;15.40;99.90
1021;DHT22;499;42.648;23.270;2023-09-18T03:07:21;15.50;99.90
1021;DHT22;499;42.648;23.270;2023-09-18T03:09:48;15.50;99.90
1021;DHT22;499;42.648;23.270;2023-09-18T03:12:15;15.60;99.90
1021;DHT22;499;42.648;23.270;2023-09-18T03:14:42;15.60;99.60
1021;DHT22;499;42.648;23.270;2023-09-18T03:17:09;15.60;99.10
1021;DHT22;499;42.648;23.270;2023-09-18T03:19:36;15.60;98.80
1021;DHT22;499;42.648;23.270;2023-09-18T03:22:03;15.60;98.20
1021;DHT22;499;42.648;23.270;2023-09-18T03:24:31;15.60;98.30
1021;DHT22;499;42.648;23.270;2023-09-18T03:26:58;15.50;98.10
1021;DHT22;499;42.648;23.270;2023-09-18T03:29:25;15.40;98.40
1021;DHT22;499;42.648;23.270;2023-09-18T03:31:52;15.40;99.10
1021;DHT22;499;42.648;23.270;2023-09-18T03:34:23;15.30;97.50
1021;DHT22;499;42.648;23.270;2023-09-18T03:36:52;15.30;99.00
1021;DHT22;499;42.648;23.270;2023-09-18T03:39:19;15.30;97.70
1021;DHT22;499;42.648;23.270;2023-09-18T03:41:48;15.20;98.60
1021;DHT22;499;42.648;23.270;2023-09-18T03:44:15;15.10;98.60
1021;DHT22;499;42.648;23.270;2023-09-18T03:46:42;14.90;99.50
1021;DHT22;499;42.648;23.270;2023-09-18T03:49:09;14.90;99.90
1021;DHT22;499;42.648;23.270;2023-09-18T03:51:36;14.90;99.90
1021;DHT22;499;42.648;23.270;2023-09-18T03:54:03;14.90;99.90
1021;DHT22;499;42.648;23.270;2023-09-18T03:56:30;14.80;99.90
1021;DHT22;499;42.648;23.270;2023-09-18T03:58:59;14.80;99.90
1021;DHT22;499;42.648;23.270;2023-09-18T04:01:27;14.80;99.90
1021;DHT22;499;42.648;23.270;2023-09-18T04:03:54;14.90;99.90
1021;DHT22;499;42.648;23.270;2023-09-18T04:06:21;14.80;99.90
1021;DHT22;499;42.648;23.270;2023-09-18T04:08:50;14.70;99.90
1021;DHT22;499;42.648;23.270;2023-09-18T04:11:17;14.50;99.90
1021;DHT22;499;42.648;23.270;2023-09-18T04:13:51;14.50;99.90
1021;DHT22;499;42.648;23.270;2023-09-18T04:16:20;14.60;99.90
1021;DHT22;499;42.648;23.270;2023-09-18T04:18:47;14.60;99.90
1021;DHT22;499;42.648;23.270;2023-09-18T04:21:14;14.70;99.90
1021;DHT22;499;42.648;23.270;2023-09-18T04:23:41;14.70;99.90
1021;DHT22;499;42.648;23.270;2023-09-18T04:26:08;14.80;99.90
1021;DHT22;499;42.648;23.270;2023-09-18T04:28:35;14.80;99.90
1021;DHT22;499;42.648;23.270;2023-09-18T04:31:02;14.90;99.90
1021;DHT22;499;42.648;23.270;2023-09-18T04:33:30;15.00;99.90
1021;DHT22;499;42.648;23.270;2023-09-18T04:35:57;15.00;99.90
1021;DHT22;499;42.648;23.270;2023-09-18T04:38:24;15.10;99.90
1021;DHT22;499;42.648;23.270;2023-09-18T04:40:57;15.10;99.90
1021;DHT22;499;42.648;23.270;2023-09-18T04:43:24;15.20;99.90
1021;DHT22;499;42.648;23.270;2023-09-18T04:45:51;15.30;99.90
1021;DHT22;499;42.648;23.270;2023-09-18T04:48:18;15.40;99.90
1021;DHT22;499;42.648;23.270;2023-09-18T04:50:48;15.60;99.90
1021;DHT22;499;42.648;23.270;2023-09-18T04:53:15;15.60;99.90
1021;DHT22;499;42.648;23.270;2023-09-18T04:55:42;15.70;99.90
1021;DHT22;499;42.648;23.270;2023-09-18T04:58:09;15.80;99.90
1021;DHT22;499;42.648;23.270;2023-09-18T05:00:36;16.00;99.90
1021;DHT22;499;42.648;23.270;2023-09-18T05:03:03;16.20;99.90
1021;DHT22;499;42.648;23.270;2023-09-18T05:05:31;16.30;99.90
1021;DHT22;499;42.648;23.270;2023-09-18T05:08:01;16.40;99.90
1021;DHT22;499;42.648;23.270;2023-09-18T05:10:28;16.40;99.50
1021;DHT22;499;42.648;23.270;2023-09-18T05:12:56;16.50;99.00
1021;DHT22;499;42.648;23.270;2023-09-18T05:15:25;16.50;99.20
1021;DHT22;499;42.648;23.270;2023-09-18T05:17:55;16.40;99.50
1021;DHT22;499;42.648;23.270;2023-09-18T05:20:23;16.50;99.90
1021;DHT22;499;42.648;23.270;2023-09-18T05:22:51;16.40;99.90
1021;DHT22;499;42.648;23.270;2023-09-18T05:25:21;16.50;99.90
1021;DHT22;499;42.648;23.270;2023-09-18T05:27:48;16.60;99.90
1021;DHT22;499;42.648;23.270;2023-09-18T05:30:24;16.70;99.90
1021;DHT22;499;42.648;23.270;2023-09-18T05:32:53;16.70;99.90
1021;DHT22;499;42.648;23.270;2023-09-18T05:35:20;16.70;99.90
1021;DHT22;499;42.648;23.270;2023-09-18T05:37:49;16.60;99.90
1021;DHT22;499;42.648;23.270;2023-09-18T05:40:16;16.50;99.90
1021;DHT22;499;42.648;23.270;2023-09-18T05:42:45;16.60;99.90
1021;DHT22;499;42.648;23.270;2023-09-18T05:45:13;16.60;99.90
1021;DHT22;499;42.648;23.270;2023-09-18T05:47:41;16.70;99.90
1021;DHT22;499;42.648;23.270;2023-09-18T05:50:09;16.80;99.90
1021;DHT22;499;42.648;23.270;2023-09-18T05:52:40;16.70;99.90
1021;DHT22;499;42.648;23.270;2023-09-18T05:55:08;16.70;99.90
1021;DHT22;499;42.648;23.270;2023-09-18T05:57:35;16.70;99.90
1021;DHT22;499;42.648;23.270;2023-09-18T06:00:05;16.70;99.90
1021;DHT22;499;42.648;23.270;2023-09-18T06:02:32;16.80;99.90
1021;DHT22;499;42.648;23.270;2023-09-18T06:05:00;16.90;99.90
1021;DHT22;499;42.648;23.270;2023-09-18T06:07:28;17.00;99.50
1021;DHT22;499;42.648;23.270;2023-09-18T06:09:58;17.00;98.10
1021;DHT22;499;42.648;23.270;2023-09-18T06:12:25;17.00;98.80
1021;DHT22;499;42.648;23.270;2023-09-18T06:14:52;17.20;98.50
1021;DHT22;499;42.648;23.270;2023-09-18T06:17:21;17.40;98.80
1021;DHT22;499;42.648;23.270;2023-09-18T06:19:48;17.50;95.60
1021;DHT22;499;42.648;23.270;2023-09-18T06:22:15;17.50;94.40
1021;DHT22;499;42.648;23.270;2023-09-18T06:24:42;17.60;91.60
1021;DHT22;499;42.648;23.270;2023-09-18T06:27:09;17.60;90.90
1021;DHT22;499;42.648;23.270;2023-09-18T06:29:36;17.60;93.50
1021;DHT22;499;42.648;23.270;2023-09-18T06:32:05;17.90;92.40
1021;DHT22;499;42.648;23.270;2023-09-18T06:34:34;18.00;91.30
1021;DHT22;499;42.648;23.270;2023-09-18T06:37:01;18.20;89.20
1021;DHT22;499;42.648;23.270;2023-09-18T06:39:29;18.20;89.60
1021;DHT22;499;42.648;23.270;2023-09-18T06:41:56;18.40;87.10
1021;DHT22;499;42.648;23.270;2023-09-18T06:44:23;18.50;83.20
1021;DHT22;499;42.648;23.270;2023-09-18T06:46:50;18.70;82.00
1021;DHT22;499;42.648;23.270;2023-09-18T06:49:18;18.90;78.90
1021;DHT22;499;42.648;23.270;2023-09-18T06:51:46;19.10;77.20
1021;DHT22;499;42.648;23.270;2023-09-18T06:54:13;19.30;72.60
1021;DHT22;499;42.648;23.270;2023-09-18T06:56:40;19.40;68.60
1021;DHT22;499;42.648;23.270;2023-09-18T06:59:09;18.80;69.60
1021;DHT22;499;42.648;23.270;2023-09-18T07:01:37;18.80;76.10
1021;DHT22;499;42.648;23.270;2023-09-18T07:04:05;19.00;74.80
1021;DHT22;499;42.648;23.270;2023-09-18T07:06:32;19.10;72.30
1021;DHT22;499;42.648;23.270;2023-09-18T07:09:00;19.10;73.10
1021;DHT22;499;42.648;23.270;2023-09-18T07:11:29;19.20;72.40
1021;DHT22;499;42.648;23.270;2023-09-18T07:13:56;19.30;68.70
1021;DHT22;499;42.648;23.270;2023-09-18T07:16:23;19.50;67.70
1021;DHT22;499;42.648;23.270;2023-09-18T07:18:50;19.60;65.30
1021;DHT22;499;42.648;23.270;2023-09-18T07:21:17;19.80;68.90
1021;DHT22;499;42.648;23.270;2023-09-18T07:23:46;19.90;62.40
1021;DHT22;499;42.648;23.270;2023-09-18T07:26:15;19.90;61.50
1021;DHT22;499;42.648;23.270;2023-09-18T07:28:42;20.00;61.90
1021;DHT22;499;42.648;23.270;2023-09-18T07:31:11;20.10;59.40
1021;DHT22;499;42.648;23.270;2023-09-18T07:33:40;20.20;57.00
1021;DHT22;499;42.648;23.270;2023-09-18T07:36:07;20.30;54.80
1021;DHT22;499;42.648;23.270;2023-09-18T07:38:35;20.10;54.00
1021;DHT22;499;42.648;23.270;2023-09-18T07:41:03;20.10;56.80
1021;DHT22;499;42.648;23.270;2023-09-18T07:43:31;20.00;57.20
1021;DHT22;499;42.648;23.270;2023-09-18T07:45:58;20.10;56.30
1021;DHT22;499;42.648;23.270;2023-09-18T07:48:27;20.00;56.30
1021;DHT22;499;42.648;23.270;2023-09-18T07:50:54;19.80;56.70
1021;DHT22;499;42.648;23.270;2023-09-18T07:53:21;19.80;58.20
1021;DHT22;499;42.648;23.270;2023-09-18T07:55:54;19.80;60.10
1021;DHT22;499;42.648;23.270;2023-09-18T07:58:21;19.70;58.40
1021;DHT22;499;42.648;23.270;2023-09-18T08:00:51;19.70;58.80
1021;DHT22;499;42.648;23.270;2023-09-18T08:03:19;19.80;59.00
1021;DHT22;499;42.648;23.270;2023-09-18T08:05:49;19.90;59.40
1021;DHT22;499;42.648;23.270;2023-09-18T08:08:18;19.90;56.90
1021;DHT22;499;42.648;23.270;2023-09-18T08:10:46;20.10;57.20
1021;DHT22;499;42.648;23.270;2023-09-18T08:13:13;20.10;53.50
1021;DHT22;499;42.648;23.270;2023-09-18T08:15:40;20.10;53.90
1021;DHT22;499;42.648;23.270;2023-09-18T08:18:08;20.10;51.20
1021;DHT22;499;42.648;23.270;2023-09-18T08:20:39;20.00;51.40
1021;DHT22;499;42.648;23.270;2023-09-18T08:23:07;20.10;50.90
1021;DHT22;499;42.648;23.270;2023-09-18T08:25:34;20.10;53.50
1021;DHT22;499;42.648;23.270;2023-09-18T08:28:01;20.10;48.90
1021;DHT22;499;42.648;23.270;2023-09-18T08:30:28;20.10;49.20
1021;DHT22;499;42.648;23.270;2023-09-18T08:32:55;20.30;51.20
1021;DHT22;499;42.648;23.270;2023-09-18T08:35:24;20.30;48.40
1021;DHT22;499;42.648;23.270;2023-09-18T08:37:55;20.30;45.50
1021;DHT22;499;42.648;23.270;2023-09-18T08:40:23;20.40;45.90
1021;DHT22;499;42.648;23.270;2023-09-18T08:42:52;20.40;48.50
1021;DHT22;499;42.648;23.270;2023-09-18T08:45:25;20.50;44.90
1021;DHT22;499;42.648;23.270;2023-09-18T08:47:54;20.60;42.80
1021;DHT22;499;42.648;23.270;2023-09-18T08:50:21;20.70;40.50
1021;DHT22;499;42.648;23.270;2023-09-18T08:52:50;20.80;40.10
1021;DHT22;499;42.648;23.270;2023-09-18T08:55:18;20.80;36.30
1021;DHT22;499;42.648;23.270;2023-09-18T08:57:46;20.90;38.80
1021;DHT22;499;42.648;23.270;2023-09-18T09:00:14;21.00;36.80
1021;DHT22;499;42.648;23.270;2023-09-18T09:02:44;21.10;35.80
1021;DHT22;499;42.648;23.270;2023-09-18T09:05:11;21.20;35.40
1021;DHT22;499;42.648;23.270;2023-09-18T09:07:38;21.30;35.90
1021;DHT22;499;42.648;23.270;2023-09-18T09:10:07;21.30;34.10
1021;DHT22;499;42.648;23.270;2023-09-18T09:12:47;21.40;34.40
1021;DHT22;499;42.648;23.270;2023-09-18T09:15:15;21.40;31.10
1021;DHT22;499;42.648;23.270;2023-09-18T09:17:42;21.40;32.60
1021;DHT22;499;42.648;23.270;2023-09-18T09:20:11;21.40;31.30
1021;DHT22;499;42.648;23.270;2023-09-18T09:22:38;21.40;29.20
1021;DHT22;499;42.648;23.270;2023-09-18T09:25:22;21.50;31.00
1021;DHT22;499;42.648;23.270;2023-09-18T09:27:49;21.50;30.00
1021;DHT22;499;42.648;23.270;2023-09-18T09:30:19;21.70;29.30
1021;DHT22;499;42.648;23.270;2023-09-18T09:32:48;21.80;27.90
1021;DHT22;499;42.648;23.270;2023-09-18T09:35:21;21.80;27.30
1021;DHT22;499;42.648;23.270;2023-09-18T09:37:48;21.90;27.50
1021;DHT22;499;42.648;23.270;2023-09-18T09:40:19;21.90;27.40
1021;DHT22;499;42.648;23.270;2023-09-18T09:42:47;22.10;26.20
1021;DHT22;499;42.648;23.270;2023-09-18T09:45:15;22.10;24.40
1021;DHT22;499;42.648;23.270;2023-09-18T09:47:43;22.20;23.20
1021;DHT22;499;42.648;23.270;2023-09-18T09:50:12;22.30;23.70
1021;DHT22;499;42.648;23.270;2023-09-18T09:52:42;22.20;23.60
1021;DHT22;499;42.648;23.270;2023-09-18T09:55:23;22.30;23.30
1021;DHT22;499;42.648;23.270;2023-09-18T09:57:52;22.40;21.50
1021;DHT22;499;42.648;23.270;2023-09-18T10:00:20;22.40;21.70
1021;DHT22;499;42.648;23.270;2023-09-18T10:02:56;22.40;21.20
1021;DHT22;499;42.648;23.270;2023-09-18T10:05:26;22.60;21.20
1021;DHT22;499;42.648;23.270;2023-09-18T10:07:55;22.70;19.90
1021;DHT22;499;42.648;23.270;2023-09-18T10:10:30;22.60;20.80
1021;DHT22;499;42.648;23.270;2023-09-18T10:13:03;22.70;21.10
1021;DHT22;499;42.648;23.270;2023-09-18T10:15:34;22.70;20.40
1021;DHT22;499;42.648;23.270;2023-09-18T10:18:07;22.80;21.70
1021;DHT22;499;42.648;23.270;2023-09-18T10:20:38;22.80;21.90
1021;DHT22;499;42.648;23.270;2023-09-18T10:23:15;22.90;20.20
1021;DHT22;499;42.648;23.270;2023-09-18T10:25:52;22.90;21.20
1021;DHT22;499;42.648;23.270;2023-09-18T10:28:21;23.00;20.20
1021;DHT22;499;42.648;23.270;2023-09-18T10:30:49;23.00;20.20
1021;DHT22;499;42.648;23.270;2023-09-18T10:33:17;23.00;20.20
1021;DHT22;499;42.648;23.270;2023-09-18T10:35:45;23.00;20.20
1021;DHT22;499;42.648;23.270;2023-09-18T10:38:15;22.90;20.10
1021;DHT22;499;42.648;23.270;2023-09-18T10:40:43;23.00;20.20
1021;DHT22;499;42.648;23.270;2023-09-18T10:43:16;23.10;20.20
1021;DHT22;499;42.648;23.270;2023-09-18T10:45:44;23.30;19.40
1021;DHT22;499;42.648;23.270;2023-09-18T10:48:12;23.40;19.10
1021;DHT22;499;42.648;23.270;2023-09-18T10:50:42;23.30;18.40
1021;DHT22;499;42.648;23.270;2023-09-18T10:53:11;23.20;19.30
1021;DHT22;499;42.648;23.270;2023-09-18T10:55:39;23.40;19.60
1021;DHT22;499;42.648;23.270;2023-09-18T10:58:08;23.50;20.00
1021;DHT22;499;42.648;23.270;2023-09-18T11:00:37;23.60;19.40
1021;DHT22;499;42.648;23.270;2023-09-18T11:03:13;23.70;17.90
1021;DHT22;499;42.648;23.270;2023-09-18T11:05:44;23.80;18.30
1021;DHT22;499;42.648;23.270;2023-09-18T11:08:25;23.90;18.70
1021;DHT22;499;42.648;23.270;2023-09-18T11:10:59;24.00;18.40
1021;DHT22;499;42.648;23.270;2023-09-18T11:13:34;24.10;17.10
1021;DHT22;499;42.648;23.270;2023-09-18T11:16:14;23.90;16.70
1021;DHT22;499;42.648;23.270;2023-09-18T11:18:41;23.80;16.60
1021;DHT22;499;42.648;23.270;2023-09-18T11:21:10;23.80;17.00
1021;DHT22;499;42.648;23.270;2023-09-18T11:23:38;23.70;17.70
1021;DHT22;499;42.648;23.270;2023-09-18T11:26:09;23.90;18.20
1021;DHT22;499;42.648;23.270;2023-09-18T11:28:37;23.80;16.70
1021;DHT22;499;42.648;23.270;2023-09-18T11:31:06;23.90;16.90
1021;DHT22;499;42.648;23.270;2023-09-18T11:33:35;23.90;17.40
1021;DHT22;499;42.648;23.270;2023-09-18T11:36:05;24.10;16.80
1021;DHT22;499;42.648;23.270;2023-09-18T11:38:34;24.00;16.50
1021;DHT22;499;42.648;23.270;2023-09-18T11:41:20;23.90;16.80
1021;DHT22;499;42.648;23.270;2023-09-18T11:43:47;23.80;16.60
1021;DHT22;499;42.648;23.270;2023-09-18T11:46:19;24.10;17.00
1021;DHT22;499;42.648;23.270;2023-09-18T11:48:48;24.10;16.50
1021;DHT22;499;42.648;23.270;2023-09-18T11:51:22;24.20;16.40
1021;DHT22;499;42.648;23.270;2023-09-18T11:53:54;24.30;17.00
1021;DHT22;499;42.648;23.270;2023-09-18T11:56:21;24.30;17.00
1021;DHT22;499;42.648;23.270;2023-09-18T11:58:50;24.40;15.90
1021;DHT22;499;42.648;23.270;2023-09-18T12:01:20;24.50;15.60
1021;DHT22;499;42.648;23.270;2023-09-18T12:03:53;24.60;15.20
1021;DHT22;499;42.648;23.270;2023-09-18T12:06:20;24.70;14.80
1021;DHT22;499;42.648;23.270;2023-09-18T12:08:51;24.50;15.10
1021;DHT22;499;42.648;23.270;2023-09-18T12:11:18;24.50;14.90
1021;DHT22;499;42.648;23.270;2023-09-18T12:13:45;24.70;14.30
1021;DHT22;499;42.648;23.270;2023-09-18T12:16:14;24.60;15.00
1021;DHT22;499;42.648;23.270;2023-09-18T12:18:46;24.60;14.40
1021;DHT22;499;42.648;23.270;2023-09-18T12:21:15;24.60;14.60
1021;DHT22;499;42.648;23.270;2023-09-18T12:23:44;24.40;14.90
1021;DHT22;499;42.648;23.270;2023-09-18T12:26:12;24.40;14.90
1021;DHT22;499;42.648;23.270;2023-09-18T12:28:41;24.20;15.10
1021;DHT22;499;42.648;23.270;2023-09-18T12:31:10;24.30;15.30
1021;DHT22;499;42.648;23.270;2023-09-18T12:33:38;24.20;14.90
1021;DHT22;499;42.648;23.270;2023-09-18T12:36:07;24.20;15.50
1021;DHT22;499;42.648;23.270;2023-09-18T12:38:35;24.20;15.40
1021;DHT22;499;42.648;23.270;2023-09-18T12:41:03;24.20;15.70
1021;DHT22;499;42.648;23.270;2023-09-18T12:43:34;24.30;15.00
1021;DHT22;499;42.648;23.270;2023-09-18T12:46:04;24.30;15.20
1021;DHT22;499;42.648;23.270;2023-09-18T12:48:31;24.30;15.80
1021;DHT22;499;42.648;23.270;2023-09-18T12:51:05;24.40;15.90
1021;DHT22;499;42.648;23.270;2023-09-18T12:53:33;24.50;16.00
1021;DHT22;499;42.648;23.270;2023-09-18T12:56:08;24.50;16.00
1021;DHT22;499;42.648;23.270;2023-09-18T12:58:36;24.60;16.00
1021;DHT22;499;42.648;23.270;2023-09-18T13:01:07;24.60;16.70
1021;DHT22;499;42.648;23.270;2023-09-18T13:03:41;24.60;17.20
1021;DHT22;499;42.648;23.270;2023-09-18T13:06:10;24.50;17.10
1021;DHT22;499;42.648;23.270;2023-09-18T13:08:39;24.60;16.60
1021;DHT22;499;42.648;23.270;2023-09-18T13:11:06;24.70;16.80
1021;DHT22;499;42.648;23.270;2023-09-18T13:13:33;24.60;16.30
1021;DHT22;499;42.648;23.270;2023-09-18T13:16:03;24.60;16.00
1021;DHT22;499;42.648;23.270;2023-09-18T13:18:31;24.60;16.90
1021;DHT22;499;42.648;23.270;2023-09-18T13:20:58;24.60;16.30
1021;DHT22;499;42.648;23.270;2023-09-18T13:23:29;24.70;15.90
1021;DHT22;499;42.648;23.270;2023-09-18T13:26:01;24.70;16.00
1021;DHT22;499;42.648;23.270;2023-09-18T13:28:29;24.70;16.10
1021;DHT22;499;42.648;23.270;2023-09-18T13:30:59;24.70;15.30
1021;DHT22;499;42.648;23.270;2023-09-18T13:33:26;24.50;15.00
1021;DHT22;499;42.648;23.270;2023-09-18T13:35:53;24.40;16.10
1021;DHT22;499;42.648;23.270;2023-09-18T13:38:21;24.30;15.70
1021;DHT22;499;42.648;23.270;2023-09-18T13:40:48;24.40;16.50
1021;DHT22;499;42.648;23.270;2023-09-18T13:43:17;24.30;16.80
1021;DHT22;499;42.648;23.270;2023-09-18T13:45:47;24.40;16.40
1021;DHT22;499;42.648;23.270;2023-09-18T13:48:17;24.50;16.10
1021;DHT22;499;42.648;23.270;2023-09-18T13:50:45;24.30;16.40
1021;DHT22;499;42.648;23.270;2023-09-18T13:53:12;24.30;16.40
1021;DHT22;499;42.648;23.270;2023-09-18T13:55:39;24.20;16.70
1021;DHT22;499;42.648;23.270;2023-09-18T13:58:07;24.10;16.20
1021;DHT22;499;42.648;23.270;2023-09-18T14:00:36;23.80;16.50
1021;DHT22;499;42.648;23.270;2023-09-18T14:03:03;23.80;16.80
1021;DHT22;499;42.648;23.270;2023-09-18T14:05:31;23.80;16.70
1021;DHT22;499;42.648;23.270;2023-09-18T14:08:00;23.80;17.10
1021;DHT22;499;42.648;23.270;2023-09-18T14:10:27;23.80;17.10
1021;DHT22;499;42.648;23.270;2023-09-18T14:12:54;23.60;17.90
1021;DHT22;499;42.648;23.270;2023-09-18T14:15:23;23.70;18.00
1021;DHT22;499;42.648;23.270;2023-09-18T14:17:51;23.50;18.10
1021;DHT22;499;42.648;23.270;2023-09-18T14:20:18;23.40;18.90
1021;DHT22;499;42.648;23.270;2023-09-18T14:22:45;23.40;19.10
1021;DHT22;499;42.648;23.270;2023-09-18T14:25:15;23.40;19.30
1021;DHT22;499;42.648;23.270;2023-09-18T14:27:42;23.50;19.00
1021;DHT22;499;42.648;23.270;2023-09-18T14:30:10;23.60;18.80
1021;DHT22;499;42.648;23.270;2023-09-18T14:32:39;23.60;19.70
1021;DHT22;499;42.648;23.270;2023-09-18T14:35:08;23.60;19.20
1021;DHT22;499;42.648;23.270;2023-09-18T14:37:35;23.70;18.90
1021;DHT22;499;42.648;23.270;2023-09-18T14:40:03;23.60;19.20
1021;DHT22;499;42.648;23.270;2023-09-18T14:42:30;23.70;18.80
1021;DHT22;499;42.648;23.270;2023-09-18T14:44:58;23.60;18.10
1021;DHT22;499;42.648;23.270;2023-09-18T14:47:27;23.60;17.90
1021;DHT22;499;42.648;23.270;2023-09-18T14:49:53;23.40;17.50
1021;DHT22;499;42.648;23.270;2023-09-18T14:52:22;23.30;18.30
1021;DHT22;499;42.648;23.270;2023-09-18T14:54:51;23.30;17.90
1021;DHT22;499;42.648;23.270;2023-09-18T14:57:18;23.30;18.60
1021;DHT22;499;42.648;23.270;2023-09-18T14:59:45;23.20;19.10
1021;DHT22;499;42.648;23.270;2023-09-18T15:02:13;23.10;19.60
1021;DHT22;499;42.648;23.270;2023-09-18T15:04:41;23.10;19.50
1021;DHT22;499;42.648;23.270;2023-09-18T15:07:28;23.00;19.40
1021;DHT22;499;42.648;23.270;2023-09-18T15:09:55;23.00;19.60
1021;DHT22;499;42.648;23.270;2023-09-18T15:12:22;23.10;20.20
1021;DHT22;499;42.648;23.270;2023-09-18T15:14:49;23.10;19.30
1021;DHT22;499;42.648;23.270;2023-09-18T15:17:16;23.20;19.40
1021;DHT22;499;42.648;23.270;2023-09-18T15:19:44;23.10;19.30
1021;DHT22;499;42.648;23.270;2023-09-18T15:22:14;23.00;20.00
1021;DHT22;499;42.648;23.270;2023-09-18T15:24:42;23.00;20.20
1021;DHT22;499;42.648;23.270;2023-09-18T15:27:09;22.90;20.10
1021;DHT22;499;42.648;23.270;2023-09-18T15:29:36;23.10;20.00
1021;DHT22;499;42.648;23.270;2023-09-18T15:32:04;23.10;20.20
1021;DHT22;499;42.648;23.270;2023-09-18T15:34:31;23.10;20.30
1021;DHT22;499;42.648;23.270;2023-09-18T15:36:58;23.10;20.20
1021;DHT22;499;42.648;23.270;2023-09-18T15:39:25;23.00;20.20
1021;DHT22;499;42.648;23.270;2023-09-18T15:41:54;23.10;19.60
1021;DHT22;499;42.648;23.270;2023-09-18T15:44:21;23.00;20.00
1021;DHT22;499;42.648;23.270;2023-09-18T15:46:48;22.80;20.10
1021;DHT22;499;42.648;23.270;2023-09-18T15:49:15;22.80;20.10
1021;DHT22;499;42.648;23.270;2023-09-18T15:51:44;22.70;20.10
1021;DHT22;499;42.648;23.270;2023-09-18T15:54:11;22.60;19.90
1021;DHT22;499;42.648;23.270;2023-09-18T15:56:38;22.70;20.70
1021;DHT22;499;42.648;23.270;2023-09-18T15:59:07;22.60;20.90
1021;DHT22;499;42.648;23.270;2023-09-18T16:01:34;22.50;21.30
1021;DHT22;499;42.648;23.270;2023-09-18T16:04:04;22.50;21.40
1021;DHT22;499;42.648;23.270;2023-09-18T16:06:31;22.60;21.80
1021;DHT22;499;42.648;23.270;2023-09-18T16:09:00;22.50;21.80
1021;DHT22;499;42.648;23.270;2023-09-18T16:11:27;22.40;22.20